createdAt,value
2019-03-28T00:00:20.299Z,22.3
2019-03-28T00:01:10.311Z,22.3
2019-03-28T00:02:00.722Z,22.3
2019-03-28T00:02:49.853Z,22.2
2019-03-28T00:03:39.926Z,22.2
2019-03-28T00:04:29.710Z,22.2
2019-03-28T00:05:20.101Z,22.1
2019-03-28T00:06:10.948Z,22.1
2019-03-28T00:07:00.173Z,22.1
2019-03-28T00:07:50.773Z,22.1
2019-03-28T00:08:40.288Z,22.1
2019-03-28T00:09:30.908Z,22.1
2019-03-28T00:10:21.243Z,22
2019-03-28T00:11:10.847Z,22
2019-03-28T00:12:01.533Z,21.9
2019-03-28T00:12:50.868Z,21.9
2019-03-28T00:13:41.196Z,21.9
2019-03-28T00:14:31.304Z,21.9
2019-03-28T00:15:21.045Z,21.9
2019-03-28T00:16:11.387Z,21.9
2019-03-28T00:17:00.420Z,21.9
2019-03-28T00:17:50.825Z,21.8
2019-03-28T00:18:40.882Z,21.8
2019-03-28T00:19:30.690Z,21.8
2019-03-28T00:20:22.300Z,21.8
2019-03-28T00:21:10.510Z,21.8
2019-03-28T00:22:01.320Z,21.8
2019-03-28T00:22:51.195Z,21.8
2019-03-28T00:23:41.722Z,21.8
2019-03-28T00:24:31.808Z,21.8
2019-03-28T00:25:21.581Z,21.8
2019-03-28T00:26:11.645Z,21.8
2019-03-28T00:27:02.092Z,21.8
2019-03-28T00:27:52.535Z,21.8
2019-03-28T00:28:42.874Z,21.8
2019-03-28T00:29:32.757Z,21.7
2019-03-28T00:30:22.667Z,21.7
2019-03-28T00:31:13.077Z,21.7
2019-03-28T00:32:02.877Z,21.7
2019-03-28T00:32:52.587Z,21.7
2019-03-28T00:33:41.617Z,21.7
2019-03-28T00:34:32.527Z,21.7
2019-03-28T00:35:22.035Z,21.7
2019-03-28T00:36:12.345Z,21.7
2019-03-28T00:37:02.682Z,21.6
2019-03-28T00:37:53.230Z,21.6
2019-03-28T00:38:42.790Z,21.6
2019-03-28T00:39:32.504Z,21.7
2019-03-28T00:40:23.407Z,21.7
2019-03-28T00:41:12.726Z,21.7
2019-03-28T00:42:01.930Z,21.7
2019-03-28T00:42:53.306Z,21.8
2019-03-28T00:43:42.908Z,21.8
2019-03-28T00:44:33.416Z,21.9
2019-03-28T00:45:22.831Z,21.9
2019-03-28T00:46:13.273Z,21.9
2019-03-28T00:47:03.086Z,22
2019-03-28T00:47:53.666Z,22.1
2019-03-28T00:48:43.993Z,22.1
2019-03-28T00:49:33.785Z,22.1
2019-03-28T00:50:23.846Z,22.2
2019-03-28T00:51:13.692Z,22.3
2019-03-28T00:52:03.738Z,22.3
2019-03-28T00:52:54.339Z,22.4
2019-03-28T00:53:44.403Z,22.4
2019-03-28T00:54:34.418Z,22.4
2019-03-28T00:55:24.561Z,22.4
2019-03-28T00:56:14.278Z,22.4
2019-03-28T00:57:04.718Z,22.3
2019-03-28T00:57:53.940Z,22.3
2019-03-28T00:58:44.158Z,22.3
2019-03-28T00:59:34.878Z,22.3
2019-03-28T01:00:23.035Z,22.3
2019-03-28T01:01:14.155Z,22.2
2019-03-28T01:02:04.254Z,22.3
2019-03-28T01:02:54.038Z,22.2
2019-03-28T01:03:44.666Z,22.2
2019-03-28T01:04:34.408Z,22.1
2019-03-28T01:05:24.505Z,22.1
2019-03-28T01:06:13.972Z,22.1
2019-03-28T01:07:03.855Z,22.1
2019-03-28T01:07:54.435Z,22.1
2019-03-28T01:08:44.770Z,22.1
2019-03-28T01:09:35.134Z,22.1
2019-03-28T01:10:26.050Z,22
2019-03-28T01:11:16.002Z,22
2019-03-28T01:12:05.360Z,22
2019-03-28T01:12:56.022Z,21.9
2019-03-28T01:13:46.162Z,21.9
2019-03-28T01:14:35.517Z,21.9
2019-03-28T01:15:25.752Z,21.9
2019-03-28T01:16:15.629Z,21.9
2019-03-28T01:17:05.739Z,21.9
2019-03-28T01:17:56.606Z,21.9
2019-03-28T01:18:46.299Z,21.9
2019-03-28T01:19:36.169Z,21.9
2019-03-28T01:20:25.281Z,21.8
2019-03-28T01:21:16.437Z,21.8
2019-03-28T01:22:06.699Z,21.8
2019-03-28T01:22:56.764Z,21.8
2019-03-28T01:23:47.092Z,21.8
2019-03-28T01:24:36.355Z,21.8
2019-03-28T01:25:26.397Z,21.8
2019-03-28T01:26:16.444Z,21.8
2019-03-28T01:27:06.783Z,21.8
2019-03-28T01:27:57.014Z,21.8
2019-03-28T01:28:47.219Z,21.7
2019-03-28T01:29:36.873Z,21.8
2019-03-28T01:30:26.516Z,21.7
2019-03-28T01:31:16.846Z,21.7
2019-03-28T01:32:07.566Z,21.7
2019-03-28T01:32:57.524Z,21.7
2019-03-28T01:33:47.231Z,21.7
2019-03-28T01:34:37.526Z,21.7
2019-03-28T01:35:28.051Z,21.7
2019-03-28T01:36:17.954Z,21.8
2019-03-28T01:37:07.480Z,21.8
2019-03-28T01:37:57.601Z,21.8
2019-03-28T01:38:47.853Z,21.9
2019-03-28T01:39:38.326Z,21.9
2019-03-28T01:40:28.164Z,21.9
2019-03-28T01:41:18.193Z,22
2019-03-28T01:42:08.608Z,22.1
2019-03-28T01:42:57.546Z,22.1
2019-03-28T01:43:47.713Z,22.1
2019-03-28T01:44:37.263Z,22.2
2019-03-28T01:45:27.891Z,22.3
2019-03-28T01:46:17.613Z,22.3
2019-03-28T01:47:07.966Z,22.4
2019-03-28T01:47:56.633Z,22.4
2019-03-28T01:48:48.140Z,22.4
2019-03-28T01:49:37.874Z,22.4
2019-03-28T01:50:27.922Z,22.4
2019-03-28T01:51:17.694Z,22.4
2019-03-28T01:52:11.500Z,22.4
2019-03-28T01:52:58.668Z,22.4
2019-03-28T01:53:47.594Z,22.3
2019-03-28T01:54:38.245Z,22.3
2019-03-28T01:55:28.537Z,22.3
2019-03-28T01:56:18.900Z,22.3
2019-03-28T01:57:19.032Z,22.3
2019-03-28T01:57:58.722Z,22.2
2019-03-28T01:58:48.794Z,22.2
2019-03-28T01:59:38.847Z,22.2
2019-03-28T02:00:28.905Z,22.2
2019-03-28T02:01:18.692Z,22.1
2019-03-28T02:02:08.477Z,22.1
2019-03-28T02:02:59.384Z,22.1
2019-03-28T02:03:48.939Z,22.1
2019-03-28T02:04:39.232Z,22.1
2019-03-28T02:05:29.315Z,22.1
2019-03-28T02:06:19.053Z,22
2019-03-28T02:07:09.127Z,22
2019-03-28T02:07:58.644Z,22
2019-03-28T02:08:49.514Z,21.9
2019-03-28T02:09:39.911Z,21.9
2019-03-28T02:10:29.889Z,21.9
2019-03-28T02:11:20.084Z,21.9
2019-03-28T02:12:10.186Z,21.9
2019-03-28T02:13:00.734Z,21.9
2019-03-28T02:13:49.899Z,21.9
2019-03-28T02:14:40.753Z,21.8
2019-03-28T02:15:30.723Z,21.8
2019-03-28T02:16:19.501Z,21.8
2019-03-28T02:17:09.338Z,21.8
2019-03-28T02:17:59.344Z,21.8
2019-03-28T02:18:49.116Z,21.8
2019-03-28T02:19:40.571Z,21.8
2019-03-28T02:20:30.641Z,21.8
2019-03-28T02:21:20.461Z,21.8
2019-03-28T02:22:10.297Z,21.8
2019-03-28T02:23:00.343Z,21.7
2019-03-28T02:23:49.843Z,21.7
2019-03-28T02:24:39.895Z,21.7
2019-03-28T02:25:30.718Z,21.6
2019-03-28T02:26:20.221Z,21.7
2019-03-28T02:27:09.808Z,21.6
2019-03-28T02:28:00.437Z,21.6
2019-03-28T02:28:50.958Z,21.7
2019-03-28T02:29:40.510Z,21.6
2019-03-28T02:30:32.512Z,21.7
2019-03-28T02:31:22.781Z,21.8
2019-03-28T02:32:11.281Z,21.8
2019-03-28T02:33:01.932Z,21.8
2019-03-28T02:33:50.860Z,21.9
2019-03-28T02:34:40.935Z,21.9
2019-03-28T02:35:30.955Z,21.9
2019-03-28T02:36:21.664Z,22
2019-03-28T02:37:11.750Z,22.1
2019-03-28T02:38:01.520Z,22.1
2019-03-28T02:38:52.028Z,22.1
2019-03-28T02:39:41.562Z,22.2
2019-03-28T02:40:31.905Z,22.3
2019-03-28T02:41:21.755Z,22.3
2019-03-28T02:42:11.736Z,22.3
2019-03-28T02:43:02.166Z,22.4
2019-03-28T02:43:52.197Z,22.4
2019-03-28T02:44:43.400Z,22.4
2019-03-28T02:45:33.869Z,22.4
2019-03-28T02:46:22.566Z,22.4
2019-03-28T02:47:12.502Z,22.4
2019-03-28T02:48:03.484Z,22.4
2019-03-28T02:48:54.319Z,22.4
2019-03-28T02:49:42.541Z,22.3
2019-03-28T02:50:32.559Z,22.3
2019-03-28T02:51:22.977Z,22.3
2019-03-28T02:52:12.455Z,22.3
2019-03-28T02:53:01.955Z,22.2
2019-03-28T02:53:53.294Z,22.2
2019-03-28T02:54:43.237Z,22.1
2019-03-28T02:55:32.979Z,22.1
2019-03-28T02:56:23.646Z,22.1
2019-03-28T02:57:14.097Z,22.1
2019-03-28T02:58:02.856Z,22.1
2019-03-28T02:58:53.191Z,22.1
2019-03-28T02:59:43.277Z,22
2019-03-28T03:00:33.072Z,22
2019-03-28T03:01:23.693Z,22
2019-03-28T03:02:14.306Z,22
2019-03-28T03:03:03.627Z,21.9
2019-03-28T03:03:53.334Z,21.9
2019-03-28T03:07:24.213Z,21.9
2019-03-28T03:08:15.085Z,21.9
2019-03-28T03:09:05.646Z,21.8
2019-03-28T03:09:55.956Z,21.8
2019-03-28T03:10:45.229Z,21.8
2019-03-28T03:11:34.119Z,21.8
2019-03-28T03:12:24.308Z,21.8
2019-03-28T03:13:14.826Z,21.8
2019-03-28T03:14:05.129Z,21.8
2019-03-28T03:14:54.614Z,21.8
2019-03-28T03:15:45.250Z,21.8
2019-03-28T03:16:34.725Z,21.8
2019-03-28T03:17:24.248Z,21.8
2019-03-28T03:18:15.430Z,21.8
2019-03-28T03:19:05.864Z,21.9
2019-03-28T03:19:55.732Z,21.9
2019-03-28T03:20:46.124Z,21.9
2019-03-28T03:21:37.045Z,22
2019-03-28T03:22:25.140Z,22
2019-03-28T03:23:15.094Z,22.1
2019-03-28T03:24:05.639Z,22.1
2019-03-28T03:24:55.778Z,22.1
2019-03-28T03:25:45.253Z,22.1
2019-03-28T03:26:35.784Z,22.1
2019-03-28T03:27:25.815Z,22.1
2019-03-28T03:28:15.820Z,22.1
2019-03-28T03:29:06.035Z,22.1
2019-03-28T03:29:55.983Z,22.1
2019-03-28T03:30:46.158Z,22.1
2019-03-28T03:31:36.566Z,22.2
2019-03-28T03:32:26.461Z,22.2
2019-03-28T03:33:17.140Z,22.3
2019-03-28T03:34:09.202Z,22.3
2019-03-28T03:34:56.883Z,22.3
2019-03-28T03:35:46.694Z,22.4
2019-03-28T03:36:36.183Z,22.4
2019-03-28T03:37:25.753Z,22.4
2019-03-28T03:38:16.083Z,22.5
2019-03-28T03:39:05.945Z,22.5
2019-03-28T03:39:56.750Z,22.6
2019-03-28T03:40:46.480Z,22.5
2019-03-28T03:41:36.430Z,22.6
2019-03-28T03:42:26.909Z,22.6
2019-03-28T03:43:16.974Z,22.5
2019-03-28T03:44:07.372Z,22.4
2019-03-28T03:44:57.321Z,22.4
2019-03-28T03:45:47.446Z,22.4
2019-03-28T03:46:36.926Z,22.3
2019-03-28T03:47:26.781Z,22.3
2019-03-28T03:48:18.239Z,22.3
2019-03-28T03:49:07.992Z,22.2
2019-03-28T03:49:58.946Z,22.2
2019-03-28T03:50:46.994Z,22.2
2019-03-28T03:51:37.309Z,22.1
2019-03-28T03:52:27.347Z,22.1
2019-03-28T03:53:17.656Z,22.1
2019-03-28T03:54:07.472Z,22.1
2019-03-28T03:54:58.154Z,22.1
2019-03-28T03:55:48.126Z,22.1
2019-03-28T03:56:38.233Z,22
2019-03-28T03:57:28.264Z,22
2019-03-28T03:58:25.393Z,22
2019-03-28T03:59:07.801Z,21.9
2019-03-28T03:59:57.872Z,21.9
2019-03-28T04:00:48.283Z,21.9
2019-03-28T04:01:38.030Z,21.9
2019-03-28T04:02:27.533Z,21.9
2019-03-28T04:03:17.569Z,21.9
2019-03-28T04:04:08.523Z,21.9
2019-03-28T04:05:03.391Z,21.8
2019-03-28T04:05:48.843Z,21.8
2019-03-28T04:06:37.900Z,21.8
2019-03-28T04:07:28.510Z,21.8
2019-03-28T04:08:19.095Z,21.8
2019-03-28T04:09:09.114Z,21.8
2019-03-28T04:09:58.659Z,21.8
2019-03-28T04:10:48.635Z,21.8
2019-03-28T04:11:39.129Z,21.8
2019-03-28T04:12:29.653Z,21.9
2019-03-28T04:13:19.146Z,21.9
2019-03-28T04:14:09.579Z,21.9
2019-03-28T04:14:59.241Z,22
2019-03-28T04:15:49.085Z,22.1
2019-03-28T04:16:39.655Z,22.1
2019-03-28T04:17:29.395Z,22.2
2019-03-28T04:18:24.994Z,22.2
2019-03-28T04:19:09.405Z,22.2
2019-03-28T04:20:01.544Z,22.3
2019-03-28T04:20:49.435Z,22.3
2019-03-28T04:21:39.426Z,22.3
2019-03-28T04:22:30.062Z,22.4
2019-03-28T04:23:19.681Z,22.4
2019-03-28T04:24:10.292Z,22.5
2019-03-28T04:25:00.363Z,22.5
2019-03-28T04:25:50.141Z,22.5
2019-03-28T04:26:39.522Z,22.5
2019-03-28T04:27:30.135Z,22.5
2019-03-28T04:28:39.980Z,22.4
2019-03-28T04:29:10.790Z,22.4
2019-03-28T04:30:01.575Z,22.4
2019-03-28T04:30:50.207Z,22.3
2019-03-28T04:31:40.236Z,22.3
2019-03-28T04:32:30.523Z,22.3
2019-03-28T04:33:20.825Z,22.2
2019-03-28T04:34:16.445Z,22.2
2019-03-28T04:35:02.065Z,22.2
2019-03-28T04:35:51.839Z,22.1
2019-03-28T04:36:41.860Z,22.1
2019-03-28T04:37:30.897Z,22.1
2019-03-28T04:38:20.997Z,22.1
2019-03-28T04:39:10.969Z,22
2019-03-28T04:40:00.983Z,21.9
2019-03-28T04:40:51.440Z,21.9
2019-03-28T04:41:41.157Z,21.9
2019-03-28T04:42:30.899Z,21.8
2019-03-28T04:43:20.804Z,21.8
2019-03-28T04:44:11.142Z,21.8
2019-03-28T04:45:01.899Z,21.8
2019-03-28T04:45:51.374Z,21.8
2019-03-28T04:46:41.734Z,21.8
2019-03-28T04:47:31.818Z,21.8
2019-03-28T04:48:21.026Z,21.7
2019-03-28T04:49:11.615Z,21.7
2019-03-28T04:50:01.838Z,21.7
2019-03-28T04:50:51.740Z,21.7
2019-03-28T04:51:41.793Z,21.7
2019-03-28T04:52:35.330Z,21.7
2019-03-28T04:53:21.395Z,21.6
2019-03-28T04:54:14.809Z,21.6
2019-03-28T04:55:02.410Z,21.7
2019-03-28T04:55:52.606Z,21.6
2019-03-28T04:56:43.120Z,21.7
2019-03-28T04:57:33.457Z,21.7
2019-03-28T04:58:27.243Z,21.7
2019-03-28T04:59:12.610Z,21.7
2019-03-28T05:00:01.855Z,21.8
2019-03-28T05:00:52.585Z,21.8
2019-03-28T05:01:42.541Z,21.8
2019-03-28T05:02:33.867Z,21.8
2019-03-28T05:03:24.007Z,21.8
2019-03-28T05:04:13.153Z,21.8
2019-03-28T05:05:03.038Z,21.8
2019-03-28T05:05:52.580Z,21.8
2019-03-28T05:06:44.035Z,21.8
2019-03-28T05:07:32.373Z,21.8
2019-03-28T05:08:22.177Z,21.8
2019-03-28T05:09:13.095Z,21.8
2019-03-28T05:10:03.030Z,21.8
2019-03-28T05:10:53.438Z,21.8
2019-03-28T05:11:42.545Z,21.8
2019-03-28T05:12:33.571Z,21.8
2019-03-28T05:13:24.624Z,21.8
2019-03-28T05:14:14.714Z,21.8
2019-03-28T05:15:03.806Z,21.8
2019-03-28T05:15:53.849Z,21.8
2019-03-28T05:16:43.874Z,21.8
2019-03-28T05:17:33.362Z,21.8
2019-03-28T05:18:23.709Z,21.7
2019-03-28T05:19:13.789Z,21.7
2019-03-28T05:20:04.056Z,21.7
2019-03-28T05:20:54.156Z,21.6
2019-03-28T05:21:44.332Z,21.6
2019-03-28T05:22:34.028Z,21.6
2019-03-28T05:23:24.616Z,21.6
2019-03-28T05:24:13.874Z,21.6
2019-03-28T05:25:05.596Z,21.6
2019-03-28T05:25:55.321Z,21.6
2019-03-28T05:26:45.321Z,21.6
2019-03-28T05:27:34.951Z,21.6
2019-03-28T05:28:25.396Z,21.6
2019-03-28T05:29:14.777Z,21.6
2019-03-28T05:30:07.549Z,21.6
2019-03-28T05:30:54.614Z,21.6
2019-03-28T05:31:44.678Z,21.6
2019-03-28T05:32:34.536Z,21.6
2019-03-28T05:33:25.053Z,21.6
2019-03-28T05:34:15.330Z,21.6
2019-03-28T05:35:06.088Z,21.6
2019-03-28T05:35:55.680Z,21.6
2019-03-28T05:36:46.322Z,21.6
2019-03-28T05:37:34.867Z,21.6
2019-03-28T05:38:24.418Z,21.6
2019-03-28T05:39:15.025Z,21.7
2019-03-28T05:40:05.716Z,21.7
2019-03-28T05:40:55.075Z,21.7
2019-03-28T05:41:44.809Z,21.8
2019-03-28T05:42:35.740Z,21.8
2019-03-28T05:43:25.253Z,21.8
2019-03-28T05:44:15.306Z,21.9
2019-03-28T05:45:05.638Z,21.8
2019-03-28T05:45:55.729Z,21.8
2019-03-28T05:46:46.037Z,21.8
2019-03-28T05:47:36.757Z,21.8
2019-03-28T05:48:25.607Z,21.8
2019-03-28T05:49:15.945Z,21.8
2019-03-28T05:50:06.333Z,21.8
2019-03-28T05:50:55.685Z,21.7
2019-03-28T05:51:46.133Z,21.7
2019-03-28T05:52:35.557Z,21.7
2019-03-28T05:53:27.012Z,21.7
2019-03-28T05:54:15.319Z,21.7
2019-03-28T05:55:09.547Z,21.6
2019-03-28T05:55:55.965Z,21.6
2019-03-28T05:56:46.758Z,21.6
2019-03-28T05:57:36.526Z,21.6
2019-03-28T05:58:26.882Z,21.6
2019-03-28T05:59:18.131Z,21.6
2019-03-28T06:00:07.224Z,21.6
2019-03-28T06:00:57.829Z,21.6
2019-03-28T06:01:47.089Z,21.4
2019-03-28T06:02:37.210Z,21.4
2019-03-28T06:05:24.539Z,21.4
2019-03-28T06:06:14.518Z,21.4
2019-03-28T06:07:18.696Z,21.5
2019-03-28T06:07:53.802Z,21.5
2019-03-28T06:08:59.646Z,21.6
2019-03-28T06:09:49.561Z,21.4
2019-03-28T06:10:24.256Z,21.5
2019-03-28T06:11:14.801Z,21.5
2019-03-28T06:12:04.659Z,21.6
2019-03-28T06:13:09.151Z,21.6
2019-03-28T06:13:45.351Z,21.6
2019-03-28T06:14:35.127Z,21.6
2019-03-28T06:15:24.911Z,21.6
2019-03-28T06:16:14.694Z,21.6
2019-03-28T06:17:18.848Z,21.6
2019-03-28T06:17:56.803Z,21.6
2019-03-28T06:18:46.326Z,21.6
2019-03-28T06:19:35.660Z,21.6
2019-03-28T06:20:24.683Z,21.6
2019-03-28T06:21:15.506Z,21.6
2019-03-28T06:22:05.641Z,21.5
2019-03-28T06:22:55.443Z,21.6
2019-03-28T06:23:45.720Z,21.6
2019-03-28T06:24:36.358Z,21.7
2019-03-28T06:25:28.576Z,21.7
2019-03-28T06:26:16.635Z,21.7
2019-03-28T06:27:05.241Z,21.8
2019-03-28T06:27:55.683Z,21.8
2019-03-28T06:28:44.860Z,21.8
2019-03-28T06:29:35.420Z,21.8
2019-03-28T06:30:25.690Z,21.8
2019-03-28T06:31:17.122Z,21.8
2019-03-28T06:32:07.342Z,21.7
2019-03-28T06:32:59.301Z,21.7
2019-03-28T06:33:45.936Z,21.6
2019-03-28T06:34:35.772Z,21.6
2019-03-28T06:35:29.172Z,21.6
2019-03-28T06:36:17.748Z,21.6
2019-03-28T06:37:07.477Z,21.6
2019-03-28T06:37:59.937Z,21.5
2019-03-28T06:38:46.277Z,21.5
2019-03-28T06:39:39.222Z,21.4
2019-03-28T06:40:26.962Z,21.4
2019-03-28T06:41:16.534Z,21.4
2019-03-28T06:42:06.359Z,21.4
2019-03-28T06:42:56.884Z,21.3
2019-03-28T06:43:47.929Z,21.3
2019-03-28T06:44:36.732Z,21.3
2019-03-28T06:45:26.814Z,21.3
2019-03-28T06:46:17.186Z,21.3
2019-03-28T06:47:06.629Z,21.3
2019-03-28T06:47:57.254Z,21.3
2019-03-28T06:48:46.209Z,21.3
2019-03-28T06:49:36.599Z,21.2
2019-03-28T06:50:26.958Z,21.2
2019-03-28T06:51:17.474Z,21.2
2019-03-28T06:52:07.548Z,21.2
2019-03-28T06:53:47.618Z,21.1
2019-03-28T06:54:37.557Z,21.1
2019-03-28T06:55:31.290Z,21.1
2019-03-28T06:56:18.851Z,21.1
2019-03-28T06:58:47.451Z,21.2
2019-03-28T06:59:44.231Z,21.3
2019-03-28T07:00:27.636Z,21.3
2019-03-28T07:01:18.441Z,21.3
2019-03-28T07:02:07.935Z,21.3
2019-03-28T07:02:57.498Z,21.4
2019-03-28T07:05:31.478Z,21.5
2019-03-28T07:06:13.665Z,21.6
2019-03-28T07:07:04.042Z,21.6
2019-03-28T07:07:53.882Z,21.5
2019-03-28T07:08:44.256Z,21.5
2019-03-28T07:09:34.699Z,21.6
2019-03-28T07:10:24.476Z,21.5
2019-03-28T07:11:14.275Z,21.5
2019-03-28T07:12:04.120Z,21.6
2019-03-28T07:12:54.157Z,21.5
2019-03-28T07:13:44.517Z,21.5
2019-03-28T07:14:34.917Z,21.4
2019-03-28T07:15:24.998Z,21.5
2019-03-28T07:16:14.692Z,21.4
2019-03-28T07:17:04.755Z,21.4
2019-03-28T07:17:54.541Z,21.4
2019-03-28T07:18:44.870Z,21.4
2019-03-28T07:19:35.014Z,21.4
2019-03-28T07:20:24.145Z,21.4
2019-03-28T07:21:14.316Z,21.4
2019-03-28T07:22:04.767Z,21.4
2019-03-28T07:22:54.859Z,21.4
2019-03-28T07:23:45.454Z,21.4
2019-03-28T07:24:35.500Z,21.4
2019-03-28T07:25:28.893Z,21.4
2019-03-28T07:26:15.348Z,21.4
2019-03-28T07:27:04.899Z,21.4
2019-03-28T07:27:55.556Z,21.4
2019-03-28T07:28:44.747Z,21.4
2019-03-28T07:29:35.434Z,21.4
2019-03-28T07:30:26.072Z,21.4
2019-03-28T07:31:15.994Z,21.4
2019-03-28T07:32:05.850Z,21.4
2019-03-28T07:32:55.653Z,21.4
2019-03-28T07:33:45.954Z,21.3
2019-03-28T07:34:35.773Z,21.3
2019-03-28T07:35:25.329Z,21.3
2019-03-28T07:36:15.572Z,21.3
2019-03-28T07:37:05.916Z,21.3
2019-03-28T07:37:55.793Z,21.3
2019-03-28T07:38:46.015Z,21.3
2019-03-28T07:39:36.401Z,21.3
2019-03-28T07:40:27.103Z,21.3
2019-03-28T07:41:19.301Z,21.3
2019-03-28T07:42:06.186Z,21.3
2019-03-28T07:42:56.902Z,21.3
2019-03-28T07:43:47.080Z,21.3
2019-03-28T07:44:40.436Z,21.3
2019-03-28T07:45:28.068Z,21.2
2019-03-28T07:48:47.313Z,21.1
2019-03-28T07:49:40.168Z,21.1
2019-03-28T07:50:27.607Z,21.1
2019-03-28T07:52:08.230Z,21.1
2019-03-28T07:52:58.502Z,21.1
2019-03-28T07:53:48.890Z,21.1
2019-03-28T07:54:37.652Z,21.1
2019-03-28T07:55:27.700Z,21.1
2019-03-28T07:56:17.777Z,21.1
2019-03-28T07:57:08.217Z,21.1
2019-03-28T07:57:57.594Z,21.1
2019-03-28T07:58:51.310Z,21.1
2019-03-28T07:59:38.305Z,21
2019-03-28T08:00:28.319Z,21.1
2019-03-28T08:01:21.883Z,21.1
2019-03-28T08:03:48.582Z,21.1
2019-03-28T08:04:38.395Z,21.1
2019-03-28T08:05:28.082Z,21.1
2019-03-28T08:06:21.099Z,21.1
2019-03-28T08:08:50.451Z,21.1
2019-03-28T08:11:19.697Z,21.2
2019-03-28T08:12:26.281Z,21.3
2019-03-28T08:12:58.951Z,21.3
2019-03-28T08:13:49.070Z,21.3
2019-03-28T08:14:39.161Z,21.3
2019-03-28T08:15:29.429Z,21.3
2019-03-28T08:16:18.428Z,21.3
2019-03-28T08:17:09.059Z,21.3
2019-03-28T08:17:59.598Z,21.3
2019-03-28T08:18:50.146Z,21.3
2019-03-28T08:19:44.201Z,21.4
2019-03-28T08:20:29.219Z,21.3
2019-03-28T08:21:19.858Z,21.4
2019-03-28T08:22:09.151Z,21.4
2019-03-28T08:22:59.217Z,21.4
2019-03-28T08:23:49.543Z,21.4
2019-03-28T08:24:39.305Z,21.3
2019-03-28T08:25:29.665Z,21.3
2019-03-28T08:26:19.703Z,21.3
2019-03-28T08:27:09.595Z,21.3
2019-03-28T08:28:03.358Z,21.3
2019-03-28T08:28:49.908Z,21.3
2019-03-28T08:29:39.980Z,21.3
2019-03-28T08:30:29.753Z,21.3
2019-03-28T08:31:21.233Z,21.3
2019-03-28T08:32:14.213Z,21.3
2019-03-28T08:33:00.978Z,21.3
2019-03-28T08:33:49.955Z,21.3
2019-03-28T08:34:40.326Z,21.3
2019-03-28T08:35:29.933Z,21.3
2019-03-28T08:36:20.190Z,21.3
2019-03-28T08:37:10.050Z,21.3
2019-03-28T08:38:00.617Z,21.3
2019-03-28T08:38:50.634Z,21.3
2019-03-28T08:39:40.659Z,21.3
2019-03-28T08:40:30.034Z,21.3
2019-03-28T08:41:21.321Z,21.4
2019-03-28T08:42:10.080Z,21.4
2019-03-28T08:43:00.409Z,21.4
2019-03-28T08:43:50.225Z,21.4
2019-03-28T08:44:41.462Z,21.4
2019-03-28T08:45:30.527Z,21.4
2019-03-28T08:46:21.167Z,21.4
2019-03-28T08:47:12.279Z,21.4
2019-03-28T08:48:01.047Z,21.4
2019-03-28T08:48:51.117Z,21.4
2019-03-28T08:49:41.117Z,21.4
2019-03-28T08:50:31.463Z,21.4
2019-03-28T08:51:21.340Z,21.4
2019-03-28T08:52:15.011Z,21.4
2019-03-28T08:53:01.161Z,21.4
2019-03-28T08:53:51.412Z,21.3
2019-03-28T08:54:41.490Z,21.2
2019-03-28T08:56:21.149Z,21.1
2019-03-28T08:57:13.679Z,20.9
2019-03-28T08:58:02.042Z,20.9
2019-03-28T08:58:51.867Z,20.9
2019-03-28T08:59:41.854Z,20.9
2019-03-28T09:00:58.906Z,20.9
2019-03-28T09:01:22.051Z,21
2019-03-28T09:02:12.376Z,21.1
2019-03-28T09:05:32.484Z,21.2
2019-03-28T09:06:24.218Z,21.3
2019-03-28T09:07:13.196Z,21.3
2019-03-28T09:08:03.198Z,21.3
2019-03-28T09:08:52.411Z,21.4
2019-03-28T09:09:43.306Z,21.4
2019-03-28T09:10:33.140Z,21.4
2019-03-28T09:11:26.760Z,21.4
2019-03-28T09:12:13.036Z,21.4
2019-03-28T09:13:03.290Z,21.4
2019-03-28T09:13:53.338Z,21.4
2019-03-28T09:14:43.535Z,21.5
2019-03-28T09:15:48.382Z,21.5
2019-03-28T09:16:23.260Z,21.6
2019-03-28T09:17:12.823Z,21.5
2019-03-28T09:18:06.108Z,21.5
2019-03-28T09:18:53.295Z,21.5
2019-03-28T09:19:45.238Z,21.5
2019-03-28T09:20:33.273Z,21.5
2019-03-28T09:21:23.724Z,21.5
2019-03-28T09:22:13.653Z,21.4
2019-03-28T09:23:03.805Z,21.3
2019-03-28T09:23:53.799Z,21.3
2019-03-28T09:24:43.862Z,21.3
2019-03-28T09:25:34.450Z,21.3
2019-03-28T09:27:14.297Z,21.3
2019-03-28T09:28:04.087Z,21.3
2019-03-28T09:28:54.777Z,21.3
2019-03-28T09:29:43.652Z,21.3
2019-03-28T09:30:51.407Z,21.3
2019-03-28T09:31:26.830Z,21.2
2019-03-28T09:32:14.347Z,21.2
2019-03-28T09:35:36.050Z,21.1
2019-03-28T09:36:25.438Z,21.1
2019-03-28T09:37:15.334Z,21.1
2019-03-28T09:38:04.827Z,21.1
2019-03-28T09:38:54.884Z,21.1
2019-03-28T09:39:45.222Z,21.1
2019-03-28T09:40:35.582Z,21
2019-03-28T09:41:25.139Z,21
2019-03-28T09:42:15.649Z,21
2019-03-28T09:43:05.279Z,21.1
2019-03-28T09:44:02.601Z,21.1
2019-03-28T09:44:45.858Z,21.1
2019-03-28T09:45:36.521Z,21
2019-03-28T09:46:24.929Z,21.1
2019-03-28T09:47:14.954Z,21.1
2019-03-28T09:48:05.628Z,21
2019-03-28T09:48:55.206Z,21
2019-03-28T09:49:45.428Z,20.9
2019-03-28T09:50:35.491Z,20.9
2019-03-28T09:51:25.686Z,20.9
2019-03-28T09:52:16.113Z,20.9
2019-03-28T09:53:07.201Z,20.9
2019-03-28T09:53:56.371Z,20.9
2019-03-28T09:54:45.431Z,20.8
2019-03-28T09:55:36.471Z,20.8
2019-03-28T09:56:26.478Z,20.9
2019-03-28T09:57:16.148Z,20.9
2019-03-28T09:58:06.541Z,20.9
2019-03-28T09:58:56.583Z,20.9
2019-03-28T09:59:46.670Z,20.9
2019-03-28T10:00:40.888Z,20.8
2019-03-28T10:01:26.502Z,20.8
2019-03-28T10:02:16.820Z,20.8
2019-03-28T10:03:06.238Z,20.7
2019-03-28T10:03:56.728Z,20.7
2019-03-28T10:06:23.996Z,20.6
2019-03-28T10:07:13.773Z,20.6
2019-03-28T10:08:04.053Z,20.6
2019-03-28T10:08:53.741Z,20.6
2019-03-28T10:09:46.986Z,20.6
2019-03-28T10:10:34.572Z,20.5
2019-03-28T10:11:23.300Z,20.5
2019-03-28T10:12:14.697Z,20.4
2019-03-28T10:13:04.470Z,20.4
2019-03-28T10:13:54.295Z,20.4
2019-03-28T10:14:44.850Z,20.5
2019-03-28T10:15:38.381Z,20.4
2019-03-28T10:16:24.989Z,20.4
2019-03-28T10:17:14.281Z,20.4
2019-03-28T10:18:04.618Z,20.4
2019-03-28T10:18:54.898Z,20.4
2019-03-28T10:19:46.341Z,20.5
2019-03-28T10:20:34.989Z,20.5
2019-03-28T10:21:25.096Z,20.6
2019-03-28T10:22:15.424Z,20.6
2019-03-28T10:23:05.466Z,20.6
2019-03-28T10:23:54.783Z,20.7
2019-03-28T10:24:45.566Z,20.8
2019-03-28T10:25:34.950Z,20.8
2019-03-28T10:26:25.128Z,20.8
2019-03-28T10:27:15.236Z,20.8
2019-03-28T10:28:05.372Z,20.8
2019-03-28T10:28:55.610Z,20.8
2019-03-28T10:29:45.380Z,20.8
2019-03-28T10:30:35.707Z,20.8
2019-03-28T10:31:25.558Z,20.7
2019-03-28T10:32:30.293Z,20.7
2019-03-28T10:33:05.752Z,20.7
2019-03-28T10:33:56.968Z,20.6
2019-03-28T10:34:45.642Z,20.6
2019-03-28T10:35:35.799Z,20.6
2019-03-28T10:36:29.282Z,20.6
2019-03-28T10:37:15.955Z,20.6
2019-03-28T10:38:06.552Z,20.6
2019-03-28T10:38:56.046Z,20.6
2019-03-28T10:39:46.210Z,20.6
2019-03-28T10:40:36.899Z,20.6
2019-03-28T10:41:31.293Z,20.5
2019-03-28T10:42:16.829Z,20.5
2019-03-28T10:43:06.691Z,20.5
2019-03-28T10:43:56.699Z,20.5
2019-03-28T10:44:47.014Z,20.5
2019-03-28T10:45:40.432Z,20.5
2019-03-28T10:46:26.852Z,20.5
2019-03-28T10:47:16.490Z,20.5
2019-03-28T10:48:07.239Z,20.6
2019-03-28T10:49:00.758Z,20.6
2019-03-28T10:49:48.239Z,20.6
2019-03-28T10:50:52.252Z,20.6
2019-03-28T10:51:27.499Z,20.5
2019-03-28T10:52:18.999Z,20.6
2019-03-28T10:53:07.356Z,20.6
2019-03-28T10:53:57.722Z,20.6
2019-03-28T10:54:47.244Z,20.6
2019-03-28T10:55:37.144Z,20.6
2019-03-28T10:56:30.516Z,20.6
2019-03-28T10:57:37.417Z,20.7
2019-03-28T10:58:24.730Z,20.7
2019-03-28T10:58:57.306Z,20.8
2019-03-28T10:59:47.327Z,20.9
2019-03-28T11:00:37.396Z,20.9
2019-03-28T11:01:57.491Z,21
2019-03-28T11:02:19.337Z,21
2019-03-28T11:03:10.016Z,21.1
2019-03-28T11:03:58.918Z,21.1
2019-03-28T11:04:49.561Z,21.1
2019-03-28T11:05:38.096Z,21.1
2019-03-28T11:06:28.248Z,21
2019-03-28T11:07:18.373Z,21
2019-03-28T11:08:08.741Z,20.9
2019-03-28T11:08:58.283Z,20.9
2019-03-28T11:09:48.575Z,20.9
2019-03-28T11:10:38.380Z,20.9
2019-03-28T11:11:29.490Z,20.9
2019-03-28T11:12:18.535Z,20.9
2019-03-28T11:13:12.938Z,20.9
2019-03-28T11:13:58.581Z,20.9
2019-03-28T11:14:52.260Z,21
2019-03-28T11:15:38.193Z,21
2019-03-28T11:16:30.029Z,21
2019-03-28T11:17:18.395Z,21
2019-03-28T11:18:09.166Z,21
2019-03-28T11:18:59.452Z,21
2019-03-28T11:19:50.214Z,21
2019-03-28T11:20:44.054Z,21
2019-03-28T11:21:29.635Z,21
2019-03-28T11:22:19.465Z,21
2019-03-28T11:23:10.169Z,21
2019-03-28T11:24:00.558Z,21
2019-03-28T11:24:53.394Z,21
2019-03-28T11:25:39.218Z,21
2019-03-28T11:26:29.839Z,21
2019-03-28T11:27:20.100Z,21
2019-03-28T11:28:10.467Z,21
2019-03-28T11:29:03.885Z,21
2019-03-28T11:29:50.004Z,21.1
2019-03-28T11:30:40.518Z,21
2019-03-28T11:31:30.079Z,21.1
2019-03-28T11:32:21.351Z,21
2019-03-28T11:33:13.509Z,21
2019-03-28T11:33:59.817Z,21
2019-03-28T11:34:50.593Z,21